METAR Data
IDs: Format: Raw Decoded Include TAF

Data at: 0828 UTC 01 Aug 2021

LSZB 010820Z VRB01KT 9999 -RA FEW009 SCT030 BKN039 13/12 Q1013 NOSIG